createdAt,value
2018-06-01T00:00:15.046Z,101112.20
2018-06-01T00:01:20.191Z,101120.20
2018-06-01T00:02:24.333Z,101119.25
2018-06-01T00:03:28.501Z,101119.53
2018-06-01T00:04:33.419Z,101125.95
2018-06-01T00:05:37.542Z,101116.58
2018-06-01T00:06:41.683Z,101120.94
2018-06-01T00:07:45.818Z,101117.67
2018-06-01T00:08:50.135Z,101122.47
2018-06-01T00:09:54.275Z,101116.29
2018-06-01T00:10:59.178Z,101118.38
2018-06-01T00:12:04.842Z,101121.09
2018-06-01T00:13:09.761Z,101121.17
2018-06-01T00:14:14.183Z,101119.47
2018-06-01T00:15:18.469Z,101123.26
2018-06-01T00:16:22.606Z,101128.06
2018-06-01T00:17:27.502Z,101123.69
2018-06-01T00:18:33.270Z,101123.38
2018-06-01T00:19:37.411Z,101120.28
2018-06-01T00:20:41.537Z,101122.76
2018-06-01T00:21:45.673Z,101124.89
2018-06-01T00:22:49.811Z,101124.89
2018-06-01T00:23:54.733Z,101119.48
2018-06-01T00:24:58.894Z,101122.47
2018-06-01T00:26:03.022Z,101121.64
2018-06-01T00:27:07.162Z,101121.27
2018-06-01T00:28:11.290Z,101119.65
2018-06-01T00:29:15.650Z,101121.97
2018-06-01T00:30:19.790Z,101120.67
2018-06-01T00:31:23.931Z,101119.91
2018-06-01T00:32:28.073Z,101124.06
2018-06-01T00:33:32.199Z,101119.54
2018-06-01T00:34:36.369Z,101127.22
2018-06-01T00:35:40.506Z,101127.14
2018-06-01T00:36:44.656Z,101127.58
2018-06-01T00:37:49.562Z,101127.89
2018-06-01T00:38:53.690Z,101128.73
2018-06-01T00:39:58.789Z,101133.71
2018-06-01T00:41:02.925Z,101135.89
2018-06-01T00:42:07.829Z,101139.13
2018-06-01T00:43:11.964Z,101145.12
2018-06-01T00:44:16.191Z,101142.77
2018-06-01T00:45:21.490Z,101141.94
2018-06-01T00:46:25.635Z,101141.28
2018-06-01T00:47:30.520Z,101135.66
2018-06-01T00:48:34.668Z,101139.23
2018-06-01T00:49:39.578Z,101143.78
2018-06-01T00:50:43.733Z,101146.53
2018-06-01T00:51:47.862Z,101146.88
2018-06-01T00:52:52.194Z,101150.35
2018-06-01T00:53:57.841Z,101151.28
2018-06-01T00:55:21.405Z,101148.87
2018-06-01T00:56:25.545Z,101150.68
2018-06-01T00:57:29.674Z,101148.63
2018-06-01T00:58:34.061Z,101147.58
2018-06-01T00:59:38.182Z,101150.28
2018-06-01T01:00:42.333Z,101151.52
2018-06-01T01:01:46.472Z,101149.81
2018-06-01T01:02:52.106Z,101151.52
2018-06-01T01:03:56.426Z,101146.53
2018-06-01T01:05:02.095Z,101150.39
2018-06-01T01:06:07.006Z,101150.10
2018-06-01T01:07:11.134Z,101152.23
2018-06-01T01:08:16.025Z,101152.66
2018-06-01T01:09:20.675Z,101152.34
2018-06-01T01:10:24.809Z,101156.73
2018-06-01T01:11:28.937Z,101152.59
2018-06-01T01:12:33.615Z,101153.86
2018-06-01T01:13:38.514Z,101153.03
2018-06-01T01:14:42.782Z,101150.07
2018-06-01T01:15:46.926Z,101150.32
2018-06-01T01:16:51.071Z,101146.89
2018-06-01T01:17:55.973Z,101148.27
2018-06-01T01:19:01.641Z,101154.30
2018-06-01T01:20:05.956Z,101145.35
2018-06-01T01:21:10.891Z,101148.42
2018-06-01T01:22:15.817Z,101148.49
2018-06-01T01:23:20.735Z,101145.14
2018-06-01T01:24:25.633Z,101146.04
2018-06-01T01:25:30.260Z,101142.14
2018-06-01T01:26:34.393Z,101136.98
2018-06-01T01:27:39.295Z,101142.61
2018-06-01T01:28:44.933Z,101145.21
2018-06-01T01:29:49.062Z,101143.30
2018-06-01T01:30:53.246Z,101139.88
2018-06-01T01:31:57.391Z,101135.69
2018-06-01T01:33:02.293Z,101133.84
2018-06-01T01:34:06.451Z,101137.78
2018-06-01T01:35:10.577Z,101132.27
2018-06-01T01:36:14.735Z,101131.40
2018-06-01T01:37:31.608Z,101129.27
2018-06-01T01:38:35.742Z,101123.21
2018-06-01T01:39:39.887Z,101124.00
2018-06-01T01:40:44.023Z,101127.32
2018-06-01T01:41:48.371Z,101113.91
2018-06-01T01:42:52.514Z,101115.59
2018-06-01T01:43:57.418Z,101116.54
2018-06-01T01:45:01.550Z,101114.27
2018-06-01T01:46:06.569Z,101117.26
2018-06-01T01:47:10.845Z,101115.84
2018-06-01T01:48:14.991Z,101110.53
2018-06-01T01:49:19.911Z,101114.75
2018-06-01T01:50:24.046Z,101116.02
2018-06-01T01:51:28.227Z,101115.86
2018-06-01T01:52:32.519Z,101116.58
2018-06-01T01:53:36.647Z,101120.59
2018-06-01T01:54:40.782Z,101114.43
2018-06-01T01:55:44.976Z,101120.36
2018-06-01T01:56:49.107Z,101117.01
2018-06-01T01:57:53.281Z,101122.02
2018-06-01T01:58:57.424Z,101119.90
2018-06-01T02:00:01.550Z,101119.39
2018-06-01T02:01:05.695Z,101125.30
2018-06-01T02:02:09.826Z,101123.53
2018-06-01T02:03:14.104Z,101123.97
2018-06-01T02:04:18.256Z,101127.72
2018-06-01T02:05:23.149Z,101128.91
2018-06-01T02:06:27.290Z,101131.94
2018-06-01T02:07:32.198Z,101131.89
2018-06-01T02:08:36.697Z,101135.80
2018-06-01T02:09:40.848Z,101136.19
2018-06-01T02:10:45.742Z,101136.22
2018-06-01T02:11:49.984Z,101135.28
2018-06-01T02:12:54.873Z,101139.10
2018-06-01T02:13:59.031Z,101133.12
2018-06-01T02:15:03.609Z,101133.83
2018-06-01T02:16:07.748Z,101130.09
2018-06-01T02:17:12.661Z,101129.73
2018-06-01T02:18:16.790Z,101123.64
2018-06-01T02:19:21.697Z,101127.41
2018-06-01T02:20:25.915Z,101121.83
2018-06-01T02:21:30.026Z,101130.52
2018-06-01T02:22:34.938Z,101124.94
2018-06-01T02:23:39.075Z,101128.32
2018-06-01T02:24:43.211Z,101132.29
2018-06-01T02:25:47.750Z,101130.92
2018-06-01T02:26:51.898Z,101135.25
2018-06-01T02:27:56.818Z,101137.22
2018-06-01T02:29:01.318Z,101129.47
2018-06-01T02:30:05.455Z,101131.74
2018-06-01T02:31:10.358Z,101129.77
2018-06-01T02:32:14.494Z,101138.10
2018-06-01T02:33:19.395Z,101138.46
2018-06-01T02:34:25.087Z,101137.16
2018-06-01T02:35:30.011Z,101139.08
2018-06-01T02:36:34.138Z,101136.38
2018-06-01T02:37:38.285Z,101135.55
2018-06-01T02:38:43.925Z,101139.19
2018-06-01T02:39:49.602Z,101136.67
2018-06-01T02:40:54.510Z,101131.66
2018-06-01T02:41:58.646Z,101133.39
2018-06-01T02:43:02.799Z,101140.71
2018-06-01T02:44:06.947Z,101134.15
2018-06-01T02:45:11.154Z,101140.78
2018-06-01T02:46:15.292Z,101141.97
2018-06-01T02:47:19.422Z,101142.70
2018-06-01T02:48:23.563Z,101145.33
2018-06-01T02:49:27.762Z,101144.21
2018-06-01T02:50:31.911Z,101140.03
2018-06-01T02:51:36.804Z,101143.27
2018-06-01T02:52:40.960Z,101138.65
2018-06-01T02:53:45.858Z,101134.50
2018-06-01T02:54:50.021Z,101135.30
2018-06-01T02:55:54.325Z,101139.34
2018-06-01T02:56:58.459Z,101140.09
2018-06-01T02:58:02.638Z,101136.67
2018-06-01T02:59:06.771Z,101140.02
2018-06-01T03:00:10.917Z,101137.28
2018-06-01T03:01:16.549Z,101141.44
2018-06-01T03:02:22.599Z,101137.94
2018-06-01T03:03:26.731Z,101137.97
2018-06-01T03:04:30.857Z,101135.27
2018-06-01T03:05:34.993Z,101141.11
2018-06-01T03:06:56.879Z,101135.80
2018-06-01T03:08:01.802Z,101139.56
2018-06-01T03:09:05.971Z,101133.89
2018-06-01T03:10:10.108Z,101139.13
2018-06-01T03:11:14.245Z,101142.01
2018-06-01T03:12:19.147Z,101142.19
2018-06-01T03:13:23.299Z,101145.28
2018-06-01T03:14:27.569Z,101142.18
2018-06-01T03:15:32.438Z,101141.78
2018-06-01T03:16:36.577Z,101146.87
2018-06-01T03:17:40.735Z,101144.81
2018-06-01T03:18:45.621Z,101143.23
2018-06-01T03:19:49.777Z,101147.52
2018-06-01T03:20:53.914Z,101143.95
2018-06-01T03:21:58.074Z,101147.81
2018-06-01T03:23:02.215Z,101145.97
2018-06-01T03:24:06.347Z,101140.38
2018-06-01T03:25:10.521Z,101141.89
2018-06-01T03:26:14.727Z,101137.06
2018-06-01T03:27:18.827Z,101142.89
2018-06-01T03:28:23.717Z,101144.02
2018-06-01T03:29:27.865Z,101141.64
2018-06-01T03:30:32.811Z,101143.66
2018-06-01T03:31:36.942Z,101144.89
2018-06-01T03:32:41.081Z,101138.08
2018-06-01T03:33:45.218Z,101137.28
2018-06-01T03:34:49.375Z,101137.28
2018-06-01T03:35:53.531Z,101137.67
2018-06-01T03:36:58.435Z,101137.53
2018-06-01T03:38:02.580Z,101131.98
2018-06-01T03:39:07.500Z,101129.72
2018-06-01T03:40:11.626Z,101127.91
2018-06-01T03:41:15.994Z,101132.38
2018-06-01T03:42:20.137Z,101127.08
2018-06-01T03:43:25.055Z,101134.66
2018-06-01T03:44:29.209Z,101133.46
2018-06-01T03:45:33.343Z,101125.09
2018-06-01T03:46:37.525Z,101123.76
2018-06-01T03:47:41.662Z,101124.77
2018-06-01T03:48:45.802Z,101123.75
2018-06-01T03:49:50.715Z,101127.90
2018-06-01T03:50:54.855Z,101126.85
2018-06-01T03:51:59.778Z,101123.56
2018-06-01T03:53:04.707Z,101123.56
2018-06-01T03:54:09.630Z,101120.45
2018-06-01T03:55:14.539Z,101121.97
2018-06-01T03:56:18.677Z,101123.36
2018-06-01T03:57:23.257Z,101120.33
2018-06-01T03:58:27.394Z,101121.73
2018-06-01T03:59:32.293Z,101116.97
2018-06-01T04:00:36.431Z,101119.06
2018-06-01T04:01:41.342Z,101116.43
2018-06-01T04:02:45.631Z,101117.34
2018-06-01T04:03:49.770Z,101117.16
2018-06-01T04:04:54.677Z,101123.15
2018-06-01T04:05:58.821Z,101113.48
2018-06-01T04:07:03.713Z,101113.36
2018-06-01T04:08:07.893Z,101116.59
2018-06-01T04:09:12.157Z,101117.28
2018-06-01T04:10:17.049Z,101115.44
2018-06-01T04:11:21.193Z,101112.00
2018-06-01T04:12:25.330Z,101110.82
2018-06-01T04:13:29.481Z,101110.20
2018-06-01T04:14:33.739Z,101111.06
2018-06-01T04:15:37.874Z,101102.80
2018-06-01T04:16:42.217Z,101110.80
2018-06-01T04:17:46.379Z,101103.20
2018-06-01T04:18:50.509Z,101107.23
2018-06-01T04:19:54.655Z,101104.09
2018-06-01T04:20:58.783Z,101097.91
2018-06-01T04:22:04.177Z,101102.55
2018-06-01T04:23:08.322Z,101097.72
2018-06-01T04:24:12.458Z,101100.70
2018-06-01T04:25:16.581Z,101101.06
2018-06-01T04:26:20.778Z,101099.48
2018-06-01T04:27:24.925Z,101097.92
2018-06-01T04:28:29.074Z,101104.19
2018-06-01T04:29:33.242Z,101099.19
2018-06-01T04:30:37.378Z,101103.95
2018-06-01T04:31:43.019Z,101103.28
2018-06-01T04:32:47.158Z,101103.91
2018-06-01T04:33:51.303Z,101106.95
2018-06-01T04:34:55.635Z,101107.02
2018-06-01T04:35:59.763Z,101111.42
2018-06-01T04:37:03.901Z,101115.67
2018-06-01T04:38:08.803Z,101109.03
2018-06-01T04:39:12.940Z,101110.64
2018-06-01T04:40:17.122Z,101109.64
2018-06-01T04:41:21.344Z,101109.19
2018-06-01T04:42:26.243Z,101110.95
2018-06-01T04:43:30.395Z,101111.32
2018-06-01T04:44:34.539Z,101112.81
2018-06-01T04:45:39.073Z,101112.04
2018-06-01T04:46:43.227Z,101116.95
2018-06-01T04:47:48.138Z,101117.12
2018-06-01T04:48:53.054Z,101113.36
2018-06-01T04:49:57.197Z,101116.06
2018-06-01T04:51:02.114Z,101114.12
2018-06-01T04:52:08.384Z,101115.84
2018-06-01T04:53:12.522Z,101112.52
2018-06-01T04:54:16.666Z,101107.79
2018-06-01T04:55:20.814Z,101111.39
2018-06-01T04:56:25.381Z,101112.83
2018-06-01T04:57:29.600Z,101111.19
2018-06-01T04:58:33.739Z,101119.61
2018-06-01T04:59:38.629Z,101115.66
2018-06-01T05:00:42.772Z,101111.31
2018-06-01T05:01:47.711Z,101115.57
2018-06-01T05:02:51.865Z,101118.77
2018-06-01T05:03:56.005Z,101121.02
2018-06-01T05:05:00.133Z,101126.57
2018-06-01T05:06:05.046Z,101128.53
2018-06-01T05:07:09.322Z,101130.61
2018-06-01T05:08:13.458Z,101130.46
2018-06-01T05:09:17.595Z,101128.89
2018-06-01T05:10:22.496Z,101132.00
2018-06-01T05:11:26.634Z,101136.27
2018-06-01T05:12:31.556Z,101136.53
2018-06-01T05:13:36.510Z,101137.52
2018-06-01T05:14:40.677Z,101142.63
2018-06-01T05:15:45.604Z,101134.90
2018-06-01T05:16:49.732Z,101138.42
2018-06-01T05:17:53.879Z,101135.67
2018-06-01T05:20:01.337Z,101137.78
2018-06-01T05:21:06.238Z,101144.35
2018-06-01T05:22:10.376Z,101137.15
2018-06-01T05:23:15.272Z,101133.89
2018-06-01T05:24:19.428Z,101140.66
2018-06-01T05:25:23.593Z,101133.50
2018-06-01T05:26:27.899Z,101132.28
2018-06-01T05:27:32.052Z,101133.16
2018-06-01T05:28:36.186Z,101130.20
2018-06-01T05:29:40.317Z,101132.86
2018-06-01T05:30:44.631Z,101139.42
2018-06-01T05:31:49.582Z,101130.17
2018-06-01T05:32:53.705Z,101144.16
2018-06-01T05:33:58.613Z,101142.20
2018-06-01T05:35:02.840Z,101147.32
2018-06-01T05:36:09.210Z,101141.48
2018-06-01T05:37:13.346Z,101140.45
2018-06-01T05:38:17.493Z,101150.22
2018-06-01T05:39:21.633Z,101143.96
2018-06-01T05:40:26.687Z,101144.04
2018-06-01T05:41:30.823Z,101149.17
2018-06-01T05:42:34.954Z,101149.70
2018-06-01T05:43:39.094Z,101150.34
2018-06-01T05:44:43.994Z,101150.86
2018-06-01T05:45:48.462Z,101145.81
2018-06-01T05:46:52.593Z,101140.89
2018-06-01T05:47:56.730Z,101148.77
2018-06-01T05:49:00.873Z,101143.45
2018-06-01T05:50:04.997Z,101144.88
2018-06-01T05:51:09.167Z,101138.53
2018-06-01T05:52:14.070Z,101134.69
2018-06-01T05:53:19.024Z,101139.98
2018-06-01T05:54:23.927Z,101129.27
2018-06-01T05:55:28.220Z,101129.17
2018-06-01T05:56:32.367Z,101133.92
2018-06-01T05:57:36.493Z,101129.08
2018-06-01T05:58:40.700Z,101129.34
2018-06-01T05:59:44.805Z,101129.70
2018-06-01T06:00:50.167Z,101129.95
2018-06-01T06:01:54.310Z,101130.88
2018-06-01T06:02:58.447Z,101129.80
2018-06-01T06:04:02.588Z,101128.95
2018-06-01T06:05:06.717Z,101127.27
2018-06-01T06:06:10.889Z,101125.06
2018-06-01T06:07:15.788Z,101122.58
2018-06-01T06:08:20.989Z,101116.27
2018-06-01T06:09:26.073Z,101114.44
2018-06-01T06:10:30.201Z,101114.84
2018-06-01T06:11:34.561Z,101113.59
2018-06-01T06:12:38.711Z,101113.27
2018-06-01T06:13:43.620Z,101108.18
2018-06-01T06:14:47.748Z,101115.84
2018-06-01T06:15:52.650Z,101111.87
2018-06-01T06:16:56.806Z,101111.92
2018-06-01T06:18:00.957Z,101115.49
2018-06-01T06:19:05.106Z,101115.06
2018-06-01T06:20:10.006Z,101109.59
2018-06-01T06:21:14.158Z,101107.81
2018-06-01T06:22:18.302Z,101110.08
2018-06-01T06:23:22.458Z,101114.05
2018-06-01T06:24:27.357Z,101118.37
2018-06-01T06:25:31.545Z,101119.62
2018-06-01T06:26:35.694Z,101120.84
2018-06-01T06:27:39.836Z,101120.63
2018-06-01T06:28:44.058Z,101125.81
2018-06-01T06:29:48.207Z,101126.78
2018-06-01T06:30:52.369Z,101126.26
2018-06-01T06:31:56.497Z,101129.11
2018-06-01T06:33:00.656Z,101125.52
2018-06-01T06:34:05.552Z,101120.57
2018-06-01T06:35:09.686Z,101121.34
2018-06-01T06:36:14.621Z,101125.20
2018-06-01T06:37:20.660Z,101125.16
2018-06-01T06:38:25.789Z,101126.32
2018-06-01T06:39:29.938Z,101119.69
2018-06-01T06:40:34.145Z,101117.31
2018-06-01T06:41:38.294Z,101114.50
2018-06-01T06:42:42.449Z,101119.35
2018-06-01T06:43:47.359Z,101111.66
2018-06-01T06:44:51.623Z,101113.53
2018-06-01T06:45:55.760Z,101117.20
2018-06-01T06:46:59.965Z,101116.66
2018-06-01T06:48:04.092Z,101112.83
2018-06-01T06:49:08.245Z,101113.50
2018-06-01T06:50:12.517Z,101105.26
2018-06-01T06:51:16.649Z,101109.34
2018-06-01T06:52:20.790Z,101104.98
2018-06-01T06:53:24.981Z,101106.05
2018-06-01T06:54:29.123Z,101107.45
2018-06-01T06:55:33.278Z,101102.28
2018-06-01T06:56:38.180Z,101104.00
2018-06-01T06:57:42.342Z,101100.41
2018-06-01T06:58:46.520Z,101103.20
2018-06-01T06:59:50.656Z,101099.13
2018-06-01T07:00:54.794Z,101099.08
2018-06-01T07:01:58.927Z,101104.71
2018-06-01T07:03:03.162Z,101110.78
2018-06-01T07:04:08.054Z,101105.02
2018-06-01T07:05:12.214Z,101107.87
2018-06-01T07:06:16.355Z,101113.40
2018-06-01T07:07:20.502Z,101110.68
2018-06-01T07:08:24.647Z,101113.83
2018-06-01T07:09:29.205Z,101121.20
2018-06-01T07:10:33.506Z,101122.95
2018-06-01T07:11:38.162Z,101123.56
2018-06-01T07:12:42.290Z,101127.30
2018-06-01T07:13:47.202Z,101130.62
2018-06-01T07:14:51.865Z,101133.05
2018-06-01T07:15:56.009Z,101132.33
2018-06-01T07:17:00.150Z,101130.97
2018-06-01T07:18:05.055Z,101127.03
2018-06-01T07:19:09.197Z,101127.79
2018-06-01T07:20:14.296Z,101132.98
2018-06-01T07:21:18.425Z,101134.33
2018-06-01T07:22:23.337Z,101136.16
2018-06-01T07:23:28.251Z,101133.56
2018-06-01T07:24:32.389Z,101138.72
2018-06-01T07:25:37.306Z,101138.25
2018-06-01T07:26:41.455Z,101134.69
2018-06-01T07:27:45.630Z,101134.32
2018-06-01T07:28:49.805Z,101134.83
2018-06-01T07:29:54.006Z,101136.21
2018-06-01T07:30:58.141Z,101136.39
2018-06-01T07:32:02.282Z,101138.19
2018-06-01T07:33:07.186Z,101138.23
2018-06-01T07:34:11.317Z,101145.29
2018-06-01T07:35:16.253Z,101142.19
2018-06-01T07:36:20.386Z,101142.86
2018-06-01T07:37:24.531Z,101141.70
2018-06-01T07:38:28.675Z,101143.95
2018-06-01T07:39:33.578Z,101137.27
2018-06-01T07:40:37.752Z,101135.53
2018-06-01T07:41:41.894Z,101138.66
2018-06-01T07:42:46.029Z,101134.39
2018-06-01T07:43:50.936Z,101134.06
2018-06-01T07:44:55.073Z,101143.62
2018-06-01T07:45:59.999Z,101143.39
2018-06-01T07:47:04.895Z,101144.16
2018-06-01T07:48:09.040Z,101143.77
2018-06-01T07:49:13.202Z,101149.91
2018-06-01T07:50:17.343Z,101151.73
2018-06-01T07:51:21.511Z,101156.56
2018-06-01T07:52:25.649Z,101150.89
2018-06-01T07:53:29.785Z,101154.25
2018-06-01T07:54:34.603Z,101159.03
2018-06-01T07:55:39.037Z,101155.27
2018-06-01T07:56:43.182Z,101152.61
2018-06-01T07:57:47.309Z,101158.09
2018-06-01T07:58:51.475Z,101159.55
2018-06-01T07:59:55.601Z,101165.46
2018-06-01T08:01:00.233Z,101160.20
2018-06-01T08:02:04.362Z,101152.05
2018-06-01T08:03:08.583Z,101154.25
2018-06-01T08:04:12.775Z,101154.91
2018-06-01T08:05:18.413Z,101152.76
2018-06-01T08:06:22.578Z,101156.52
2018-06-01T08:07:26.729Z,101151.57
2018-06-01T08:08:30.886Z,101160.67
2018-06-01T08:09:35.146Z,101160.23
2018-06-01T08:10:39.298Z,101161.86
2018-06-01T08:11:44.198Z,101159.73
2018-06-01T08:12:48.338Z,101157.66
2018-06-01T08:13:52.490Z,101171.38
2018-06-01T08:14:57.050Z,101162.09
2018-06-01T08:16:01.950Z,101161.92
2018-06-01T08:17:06.081Z,101162.95
2018-06-01T08:18:10.998Z,101167.01
2018-06-01T08:19:15.129Z,101161.64
2018-06-01T08:20:20.123Z,101164.16
2018-06-01T08:21:24.376Z,101160.94
2018-06-01T08:22:29.571Z,101162.78
2018-06-01T08:23:33.791Z,101169.35
2018-06-01T08:24:37.931Z,101166.61
2018-06-01T08:25:42.826Z,101163.00
2018-06-01T08:26:46.982Z,101168.95
2018-06-01T08:27:51.129Z,101162.76
2018-06-01T08:28:55.261Z,101169.12
2018-06-01T08:29:59.394Z,101164.47
2018-06-01T08:31:03.588Z,101167.45
2018-06-01T08:32:08.485Z,101167.66
2018-06-01T08:33:12.634Z,101165.06
2018-06-01T08:34:17.539Z,101163.08
2018-06-01T08:35:22.202Z,101162.26
2018-06-01T08:36:27.470Z,101166.88
2018-06-01T08:37:31.708Z,101165.26
2018-06-01T08:38:35.854Z,101169.30
2018-06-01T08:39:40.040Z,101164.73
2018-06-01T08:40:44.170Z,101167.97
2018-06-01T08:41:48.354Z,101166.59
2018-06-01T08:42:52.497Z,101162.63
2018-06-01T08:43:56.629Z,101162.91
2018-06-01T08:45:00.757Z,101165.87
2018-06-01T08:46:04.894Z,101160.61
2018-06-01T08:47:09.809Z,101157.34
2018-06-01T08:48:13.942Z,101156.42
2018-06-01T08:49:18.086Z,101154.86
2018-06-01T08:50:22.278Z,101158.55
2018-06-01T08:51:26.589Z,101153.72
2018-06-01T08:52:31.668Z,101150.55
2018-06-01T08:53:35.774Z,101156.97
2018-06-01T08:54:39.911Z,101156.88
2018-06-01T08:55:45.012Z,101150.12
2018-06-01T08:56:49.141Z,101150.64
2018-06-01T08:57:53.285Z,101155.20
2018-06-01T08:58:57.441Z,101152.08
2018-06-01T09:00:01.582Z,101150.52
2018-06-01T09:01:06.550Z,101147.34
2018-06-01T09:02:10.687Z,101159.55
2018-06-01T09:03:15.197Z,101152.66
2018-06-01T09:04:19.349Z,101150.73
2018-06-01T09:05:24.249Z,101150.82
2018-06-01T09:06:29.113Z,101154.88
2018-06-01T09:07:33.257Z,101157.99
2018-06-01T09:08:37.516Z,101156.02
2018-06-01T09:09:41.654Z,101153.75
2018-06-01T09:10:45.798Z,101149.91
2018-06-01T09:11:49.934Z,101156.83
2018-06-01T09:12:54.074Z,101156.44
2018-06-01T09:13:58.261Z,101156.20
2018-06-01T09:15:03.166Z,101157.67
2018-06-01T09:16:08.829Z,101156.98
2018-06-01T09:17:13.730Z,101157.16
2018-06-01T09:18:17.862Z,101159.34
2018-06-01T09:19:22.902Z,101162.31
2018-06-01T09:20:28.234Z,101162.59
2018-06-01T09:21:32.436Z,101161.30
2018-06-01T09:22:36.575Z,101164.45
2018-06-01T09:23:40.701Z,101162.47
2018-06-01T09:24:46.019Z,101163.78
2018-06-01T09:25:50.739Z,101161.52
2018-06-01T09:26:54.902Z,101166.59
2018-06-01T09:27:59.080Z,101171.69
2018-06-01T09:29:03.211Z,101170.88
2018-06-01T09:30:07.346Z,101175.89
2018-06-01T09:31:11.642Z,101170.05
2018-06-01T09:32:15.773Z,101175.70
2018-06-01T09:33:19.907Z,101175.74
2018-06-01T09:34:24.914Z,101177.65
2018-06-01T09:35:29.348Z,101180.08
2018-06-01T09:36:34.295Z,101184.34
2018-06-01T09:37:38.434Z,101180.20
2018-06-01T09:38:42.579Z,101181.42
2018-06-01T09:39:46.793Z,101185.08
2018-06-01T09:40:51.680Z,101188.57
2018-06-01T09:41:56.001Z,101186.03
2018-06-01T09:43:00.156Z,101189.69
2018-06-01T09:44:05.049Z,101188.78
2018-06-01T09:45:09.231Z,101193.47
2018-06-01T09:46:13.370Z,101190.80
2018-06-01T09:47:17.526Z,101190.68
2018-06-01T09:48:21.733Z,101190.80
2018-06-01T09:49:25.895Z,101191.66
2018-06-01T09:50:30.033Z,101188.34
2018-06-01T09:51:34.935Z,101194.41
2018-06-01T09:52:39.141Z,101192.45
2018-06-01T09:53:43.265Z,101196.08
2018-06-01T09:54:47.401Z,101186.88
2018-06-01T09:55:51.555Z,101194.67
2018-06-01T09:56:55.675Z,101196.25
2018-06-01T09:57:59.838Z,101190.69
2018-06-01T09:59:03.982Z,101199.73
2018-06-01T10:00:08.124Z,101198.96
2018-06-01T10:01:13.058Z,101199.99
2018-06-01T10:02:17.195Z,101200.13
2018-06-01T10:03:21.334Z,101200.01
2018-06-01T10:04:25.582Z,101201.37
2018-06-01T10:05:30.403Z,101199.98
2018-06-01T10:06:34.941Z,101198.91
2018-06-01T10:07:39.083Z,101197.34
2018-06-01T10:08:43.234Z,101198.03
2018-06-01T10:09:52.835Z,101195.59
2018-06-01T10:10:56.971Z,101196.83
2018-06-01T10:12:01.123Z,101195.63
2018-06-01T10:13:05.268Z,101192.98
2018-06-01T10:14:09.398Z,101195.80
2018-06-01T10:15:13.538Z,101196.62
2018-06-01T10:16:18.437Z,101193.20
2018-06-01T10:17:24.114Z,101187.67
2018-06-01T10:18:28.252Z,101186.19
2018-06-01T10:19:32.385Z,101188.05
2018-06-01T10:20:36.525Z,101186.34
2018-06-01T10:21:41.417Z,101189.09
2018-06-01T10:22:45.664Z,101190.98
2018-06-01T10:23:49.800Z,101188.72
2018-06-01T10:24:53.969Z,101197.25
2018-06-01T10:25:58.104Z,101199.07
2018-06-01T10:27:03.000Z,101194.44
2018-06-01T10:28:07.179Z,101197.89
2018-06-01T10:29:12.215Z,101198.67
2018-06-01T10:31:26.693Z,101202.15
2018-06-01T10:33:46.608Z,101204.48
2018-06-01T10:34:50.745Z,101198.80
2018-06-01T10:35:54.933Z,101201.45
2018-06-01T10:36:59.071Z,101198.18
2018-06-01T10:38:03.252Z,101199.95
2018-06-01T10:39:07.413Z,101193.62
2018-06-01T10:40:11.555Z,101192.81
2018-06-01T10:41:15.685Z,101196.52
2018-06-01T10:42:20.582Z,101194.93
2018-06-01T10:43:24.719Z,101194.17
2018-06-01T10:44:29.782Z,101196.45
2018-06-01T10:45:33.937Z,101202.83
2018-06-01T10:46:38.087Z,101200.33
2018-06-01T10:47:43.137Z,101197.72
2018-06-01T10:48:47.283Z,101194.28
2018-06-01T10:49:51.486Z,101199.56
2018-06-01T10:50:55.659Z,101201.58
2018-06-01T10:51:59.922Z,101202.63
2018-06-01T10:53:04.858Z,101194.50
2018-06-01T10:54:08.986Z,101194.02
2018-06-01T10:55:13.153Z,101194.95
2018-06-01T10:56:17.262Z,101194.79
2018-06-01T10:57:22.934Z,101184.75
2018-06-01T10:58:27.915Z,101191.28
2018-06-01T10:59:32.061Z,101192.67
2018-06-01T11:00:36.206Z,101192.58
2018-06-01T11:01:40.360Z,101191.98
2018-06-01T11:02:44.533Z,101196.91
2018-06-01T11:03:48.665Z,101193.25
2018-06-01T11:04:52.804Z,101188.55
2018-06-01T11:05:56.959Z,101188.66
2018-06-01T11:07:01.082Z,101186.53
2018-06-01T11:08:05.233Z,101184.48
2018-06-01T11:09:10.171Z,101188.60
2018-06-01T11:10:14.303Z,101186.28
2018-06-01T11:11:18.492Z,101195.53
2018-06-01T11:12:22.609Z,101192.13
2018-06-01T11:13:27.542Z,101198.45
2018-06-01T11:14:32.460Z,101191.84
2018-06-01T11:15:37.353Z,101191.00
2018-06-01T11:16:41.662Z,101189.40
2018-06-01T11:17:45.811Z,101190.45
2018-06-01T11:18:50.705Z,101191.15
2018-06-01T11:19:54.921Z,101195.33
2018-06-01T11:21:00.600Z,101198.31
2018-06-01T11:22:05.543Z,101195.98
2018-06-01T11:23:09.687Z,101197.80
2018-06-01T11:24:13.825Z,101201.24
2018-06-01T11:25:18.766Z,101196.64
2018-06-01T11:26:23.654Z,101200.20
2018-06-01T11:27:28.282Z,101196.05
2018-06-01T11:28:32.426Z,101198.31
2018-06-01T11:29:37.322Z,101185.72
2018-06-01T11:30:41.453Z,101191.09
2018-06-01T11:31:46.349Z,101187.48
2018-06-01T11:32:50.509Z,101199.16
2018-06-01T11:33:54.702Z,101193.29
2018-06-01T11:34:58.846Z,101191.78
2018-06-01T11:36:02.974Z,101194.13
2018-06-01T11:37:07.100Z,101191.91
2018-06-01T11:38:11.254Z,101187.17
2018-06-01T11:39:15.400Z,101189.50
2018-06-01T11:40:19.542Z,101189.44
2018-06-01T11:41:23.678Z,101189.06
2018-06-01T11:42:27.869Z,101185.39
2018-06-01T11:43:32.780Z,101187.75
2018-06-01T11:44:36.911Z,101176.23
2018-06-01T11:45:41.802Z,101175.78
2018-06-01T11:46:45.938Z,101173.82
2018-06-01T11:47:50.214Z,101173.05
2018-06-01T11:48:54.345Z,101173.69
2018-06-01T11:49:58.556Z,101172.16
2018-06-01T11:51:02.689Z,101171.05
2018-06-01T11:52:07.596Z,101168.69
2018-06-01T11:53:11.759Z,101163.66
2018-06-01T11:54:15.891Z,101167.06
2018-06-01T11:55:20.209Z,101163.55
2018-06-01T11:56:24.352Z,101162.37
2018-06-01T11:57:29.263Z,101160.44
2018-06-01T11:58:33.651Z,101157.30
2018-06-01T11:59:37.972Z,101153.14
2018-06-01T12:00:42.613Z,101154.58
2018-06-01T12:01:47.522Z,101153.05
2018-06-01T12:02:51.661Z,101158.28
2018-06-01T12:03:56.435Z,101151.06
2018-06-01T12:05:01.230Z,101146.09
2018-06-01T12:06:05.396Z,101144.72
2018-06-01T12:07:09.522Z,101145.82
2018-06-01T12:08:14.433Z,101149.05
2018-06-01T12:09:18.576Z,101139.86
2018-06-01T12:10:23.531Z,101139.88
2018-06-01T12:11:27.710Z,101138.20
2018-06-01T12:12:32.609Z,101133.70
2018-06-01T12:13:36.745Z,101138.06
2018-06-01T12:14:41.641Z,101129.21
2018-06-01T12:15:45.777Z,101130.23
2018-06-01T12:16:50.878Z,101126.47
2018-06-01T12:17:55.015Z,101117.56
2018-06-01T12:18:59.142Z,101121.38